Time;durP1;ratioP1;P1;durP2;ratioP2;P2;SDS_P1;SDS_P2;PMS_P1;PMS_P2;Temp;Humidity;BMP_temperature;BMP_pressure;BME280_temperature;BME280_humidity;BME280_pressure;Samples;Min_cycle;Max_cycle;Signal;HPM_P1;HPM_P2
2021/12/12 00:00:30;;;;;;;6.60;5.07;;;4.20;99.90;;;;;;5012361;28;20952;-79
2021/12/12 00:03:05;;;;;;;7.47;4.73;;;4.20;99.90;;;;;;5029257;28;20449;-79
2021/12/12 00:05:55;;;;;;;11.03;5.57;;;4.20;99.90;;;;;;5012451;28;20418;-79
2021/12/12 00:08:25;;;;;;;11.30;6.93;;;4.10;99.90;;;;;;5012744;28;20422;-79
2021/12/12 00:11:00;;;;;;;10.87;5.47;;;4.10;99.90;;;;;;5012168;28;20475;-79
2021/12/12 00:13:33;;;;;;;7.00;4.97;;;4.10;99.90;;;;;;5012446;28;21002;-79
2021/12/12 00:15:58;;;;;;;8.10;4.90;;;4.10;99.90;;;;;;5012164;28;20425;-79
2021/12/12 00:18:24;;;;;;;9.13;4.77;;;4.10;99.90;;;;;;5013260;28;20437;-79
2021/12/12 00:20:51;;;;;;;8.70;5.37;;;4.10;99.90;;;;;;5012135;28;20211;-79
2021/12/12 00:23:17;;;;;;;7.43;5.03;;;4.10;99.90;;;;;;5011863;28;20465;-79
2021/12/12 00:25:49;;;;;;;9.40;4.27;;;4.10;99.90;;;;;;5011866;28;20468;-79
2021/12/12 00:28:19;;;;;;;9.90;5.33;;;4.10;99.90;;;;;;5011732;28;20456;-79
2021/12/12 00:30:47;;;;;;;9.03;5.20;;;4.10;99.90;;;;;;5012067;28;20510;-79
2021/12/12 00:33:13;;;;;;;10.20;5.10;;;4.10;99.90;;;;;;5012139;28;20461;-79
2021/12/12 00:35:40;;;;;;;10.13;4.87;;;4.10;99.90;;;;;;5011878;28;20421;-79
2021/12/12 00:38:11;;;;;;;9.60;4.63;;;4.10;99.90;;;;;;5012245;28;21008;-79
2021/12/12 00:40:43;;;;;;;8.30;4.07;;;4.10;99.90;;;;;;5011268;28;20424;-79
2021/12/12 00:43:21;;;;;;;8.30;4.30;;;4.10;99.90;;;;;;5011585;28;20520;-79
2021/12/12 00:45:47;;;;;;;5.87;4.47;;;4.10;99.90;;;;;;5011824;28;20455;-79
2021/12/12 00:48:13;;;;;;;9.60;4.43;;;4.10;99.90;;;;;;5012001;28;20472;-79
2021/12/12 00:50:42;;;;;;;9.67;4.83;;;4.10;99.90;;;;;;5011199;28;20871;-79
2021/12/12 00:53:10;;;;;;;8.13;4.40;;;4.20;99.90;;;;;;5011045;28;20995;-79
2021/12/12 00:55:38;;;;;;;6.47;3.80;;;4.20;99.90;;;;;;5011229;28;20421;-79
2021/12/12 00:58:06;;;;;;;10.17;4.30;;;4.30;99.90;;;;;;5011263;28;20416;-79
2021/12/12 01:00:39;;;;;;;7.03;3.57;;;4.40;99.90;;;;;;5011330;28;20837;-79
2021/12/12 01:03:08;;;;;;;8.90;4.13;;;4.40;99.90;;;;;;5010958;28;20457;-79
2021/12/12 01:05:35;;;;;;;7.60;3.60;;;4.50;99.90;;;;;;5011008;28;20426;-79
2021/12/12 01:08:01;;;;;;;6.30;4.33;;;4.50;99.90;;;;;;5010976;28;20951;-79
2021/12/12 01:10:42;;;;;;;5.83;4.50;;;4.50;99.90;;;;;;5010884;28;20433;-79
2021/12/12 01:13:09;;;;;;;9.50;3.73;;;4.50;99.90;;;;;;5010849;28;20436;-78
2021/12/12 01:15:43;;;;;;;9.73;4.43;;;4.50;99.90;;;;;;5011800;28;20420;-79
2021/12/12 01:18:14;;;;;;;7.30;3.73;;;4.50;99.90;;;;;;5012875;28;20425;-78
2021/12/12 01:21:10;;;;;;;6.80;3.67;;;4.50;99.90;;;;;;5012323;28;20564;-78
2021/12/12 01:23:45;;;;;;;6.43;3.93;;;4.60;99.90;;;;;;5011348;28;20436;-78
2021/12/12 01:26:11;;;;;;;6.83;4.00;;;4.50;99.90;;;;;;5011008;28;20468;-79
2021/12/12 01:28:42;;;;;;;12.47;4.17;;;4.60;99.90;;;;;;5030650;22;20503;-86
2021/12/12 01:31:14;;;;;;;6.63;3.33;;;4.60;99.90;;;;;;5035498;28;20425;-86
2021/12/12 01:33:41;;;;;;;7.47;3.97;;;4.60;99.90;;;;;;5035463;28;20510;-85
2021/12/12 01:36:30;;;;;;;7.67;4.47;;;4.60;99.90;;;;;;5033692;28;20444;-85
2021/12/12 01:38:57;;;;;;;9.90;4.20;;;4.60;99.90;;;;;;5034780;28;20947;-85
2021/12/12 01:41:34;;;;;;;8.77;4.10;;;4.60;99.90;;;;;;5034794;28;20806;-86
2021/12/12 01:44:21;;;;;;;6.67;4.23;;;4.60;99.90;;;;;;5034599;28;20432;-86
2021/12/12 01:46:59;;;;;;;6.00;3.70;;;4.60;99.90;;;;;;5034160;28;20450;-86
2021/12/12 01:49:28;;;;;;;5.77;3.30;;;4.60;99.90;;;;;;5034677;28;20474;-87
2021/12/12 01:51:56;;;;;;;6.17;3.90;;;4.60;99.90;;;;;;5032277;28;20426;-87
2021/12/12 01:54:27;;;;;;;8.40;4.03;;;4.60;99.90;;;;;;5035508;28;20468;-89
2021/12/12 01:56:59;;;;;;;8.03;3.90;;;4.60;99.90;;;;;;5035766;28;20817;-86
2021/12/12 01:59:29;;;;;;;7.40;3.70;;;4.60;99.90;;;;;;5035770;28;20429;-89
2021/12/12 02:02:17;;;;;;;6.30;3.70;;;4.70;99.90;;;;;;5035646;28;20468;-87
2021/12/12 02:04:49;;;;;;;8.03;3.47;;;4.70;99.90;;;;;;5035815;28;20506;-86
2021/12/12 02:07:18;;;;;;;6.03;3.67;;;4.70;99.90;;;;;;5035427;28;20448;-86
2021/12/12 02:09:44;;;;;;;5.10;3.13;;;4.70;99.90;;;;;;5035233;28;20460;-87
2021/12/12 02:12:11;;;;;;;7.10;3.47;;;4.70;99.90;;;;;;5035533;28;20428;-86
2021/12/12 02:14:40;;;;;;;6.00;3.70;;;4.80;99.90;;;;;;5034694;28;20807;-86
2021/12/12 02:17:33;;;;;;;7.20;3.20;;;4.70;99.90;;;;;;5034539;28;20820;-86
2021/12/12 02:20:17;;;;;;;5.93;3.37;;;4.70;99.90;;;;;;5034225;28;20408;-88
2021/12/12 02:36:05;;;;;;;7.27;3.43;;;4.80;99.90;;;;;;5035694;28;20431;-86
2021/12/12 02:38:33;;;;;;;8.40;3.97;;;4.80;99.90;;;;;;5033550;28;20446;-86
2021/12/12 02:41:04;;;;;;;7.30;3.47;;;4.80;99.90;;;;;;5033731;28;20938;-86
2021/12/12 02:43:33;;;;;;;5.93;3.10;;;4.90;99.90;;;;;;5033944;28;20411;-86
2021/12/12 02:45:59;;;;;;;7.40;4.67;;;4.90;99.90;;;;;;5033784;28;20561;-86
2021/12/12 02:48:32;;;;;;;6.50;3.37;;;4.90;99.90;;;;;;5033186;28;20497;-86
2021/12/12 02:51:03;;;;;;;6.90;2.80;;;4.90;99.90;;;;;;5033545;28;20923;-86
2021/12/12 02:53:35;;;;;;;6.37;3.47;;;5.00;99.90;;;;;;5033627;28;20465;-86
2021/12/12 02:56:09;;;;;;;5.93;3.20;;;5.00;99.90;;;;;;5033240;28;20444;-87
2021/12/12 02:58:35;;;;;;;7.13;3.70;;;5.00;99.90;;;;;;5033138;28;20413;-87
2021/12/12 03:01:20;;;;;;;6.90;4.10;;;5.00;99.90;;;;;;5032751;28;20476;-86
2021/12/12 03:03:48;;;;;;;9.20;3.90;;;5.10;99.90;;;;;;5032498;28;20418;-86
2021/12/12 03:06:21;;;;;;;5.23;3.23;;;5.10;99.90;;;;;;5032757;28;20438;-86
2021/12/12 03:08:50;;;;;;;5.77;3.60;;;5.10;99.90;;;;;;5032880;28;20425;-86
2021/12/12 03:11:17;;;;;;;7.03;4.20;;;5.10;99.90;;;;;;5032869;28;20762;-86
2021/12/12 03:13:43;;;;;;;10.67;4.27;;;5.10;99.90;;;;;;5032624;28;20507;-87
2021/12/12 03:16:09;;;;;;;7.77;3.20;;;5.10;99.90;;;;;;5032516;28;20442;-86
2021/12/12 03:18:42;;;;;;;8.33;4.93;;;5.10;99.90;;;;;;5032420;28;20175;-87
2021/12/12 03:21:16;;;;;;;9.53;3.80;;;5.20;99.90;;;;;;5032394;28;20418;-87
2021/12/12 03:23:53;;;;;;;5.20;3.40;;;5.20;99.90;;;;;;5032820;28;20413;-86
2021/12/12 03:26:20;;;;;;;6.83;4.03;;;5.20;99.90;;;;;;5032969;28;20496;-87
2021/12/12 03:28:50;;;;;;;6.70;3.50;;;5.20;99.90;;;;;;5032627;28;20451;-87
2021/12/12 03:31:22;;;;;;;8.90;4.00;;;5.30;99.90;;;;;;5032881;28;20411;-86
2021/12/12 03:33:48;;;;;;;9.23;3.63;;;5.30;99.90;;;;;;5032608;28;20486;-87
2021/12/12 03:36:15;;;;;;;6.20;3.43;;;5.30;99.90;;;;;;5032718;28;20445;-87
2021/12/12 03:38:45;;;;;;;7.60;3.30;;;5.30;99.90;;;;;;5032466;28;20981;-86
2021/12/12 03:41:18;;;;;;;4.73;3.40;;;5.30;99.90;;;;;;5032459;28;20419;-86
2021/12/12 03:43:45;;;;;;;10.40;3.80;;;5.30;99.90;;;;;;5032342;28;20429;-87
2021/12/12 03:46:11;;;;;;;4.70;3.70;;;5.30;99.90;;;;;;5032401;28;20583;-86
2021/12/12 03:48:40;;;;;;;8.60;4.23;;;5.40;99.90;;;;;;5032467;28;20437;-86
2021/12/12 03:51:08;;;;;;;8.90;3.90;;;5.40;99.90;;;;;;5032325;28;20430;-86
2021/12/12 03:53:37;;;;;;;9.07;4.03;;;5.40;99.90;;;;;;5032276;28;20523;-88
2021/12/12 03:56:04;;;;;;;6.90;3.80;;;5.40;99.90;;;;;;5032195;28;20442;-87
2021/12/12 03:58:30;;;;;;;7.97;4.33;;;5.40;99.90;;;;;;5032405;28;20476;-86
2021/12/12 04:01:01;;;;;;;9.90;4.27;;;5.40;99.90;;;;;;5032179;28;20418;-87
2021/12/12 04:03:27;;;;;;;7.20;3.50;;;5.40;99.90;;;;;;5032357;28;20413;-87
2021/12/12 04:05:58;;;;;;;7.97;4.13;;;5.50;99.90;;;;;;5032198;28;20439;-88
2021/12/12 04:08:30;;;;;;;9.70;4.17;;;5.40;99.90;;;;;;5032267;28;20417;-87
2021/12/12 04:10:59;;;;;;;6.30;4.40;;;5.40;99.90;;;;;;5032063;28;20437;-86
2021/12/12 04:13:25;;;;;;;7.03;4.83;;;5.30;99.90;;;;;;5031761;28;20492;-87
2021/12/12 04:15:54;;;;;;;8.00;3.77;;;5.20;99.90;;;;;;5030890;28;20413;-88
2021/12/12 04:18:23;;;;;;;5.23;3.97;;;5.20;99.90;;;;;;5031602;28;20232;-87
2021/12/12 04:20:49;;;;;;;8.40;4.00;;;5.10;99.90;;;;;;5031522;28;20442;-87
2021/12/12 04:23:21;;;;;;;9.27;4.60;;;5.10;99.90;;;;;;5031905;28;20433;-87
2021/12/12 04:25:47;;;;;;;7.87;4.80;;;5.10;99.90;;;;;;5031407;28;20855;-90
2021/12/12 04:28:13;;;;;;;8.63;4.77;;;5.00;99.90;;;;;;5031024;28;20427;-88
2021/12/12 04:30:39;;;;;;;9.60;4.60;;;5.00;99.90;;;;;;5031276;28;20896;-87
2021/12/12 04:33:06;;;;;;;11.60;6.60;;;5.00;99.90;;;;;;5031565;28;20472;-88
2021/12/12 04:35:31;;;;;;;11.93;5.00;;;5.00;99.90;;;;;;5031298;28;20472;-87
2021/12/12 04:38:00;;;;;;;8.00;4.40;;;5.00;99.90;;;;;;5031060;28;20922;-87
2021/12/12 04:40:28;;;;;;;9.70;5.23;;;5.00;99.90;;;;;;5031051;28;20433;-87
2021/12/12 04:42:56;;;;;;;10.80;4.70;;;5.00;99.90;;;;;;5031015;28;20422;-88
2021/12/12 04:46:08;;;;;;;8.73;5.60;;;5.00;99.90;;;;;;5031064;28;20426;-88
2021/12/12 04:51:33;;;;;;;9.93;4.80;;;5.10;99.90;;;;;;5032393;28;20394;-87
2021/12/12 04:54:07;;;;;;;14.63;5.20;;;5.10;99.90;;;;;;5030840;28;20542;-87
2021/12/12 04:56:55;;;;;;;12.57;4.47;;;5.10;99.90;;;;;;5031016;28;20450;-87
2021/12/12 04:59:42;;;;;;;7.57;4.90;;;5.10;99.90;;;;;;5030858;28;20462;-88
2021/12/12 05:02:18;;;;;;;9.23;5.60;;;5.20;99.90;;;;;;5030917;28;20469;-88
2021/12/12 05:04:43;;;;;;;10.87;7.30;;;5.10;99.90;;;;;;5031135;28;20417;-88
2021/12/12 05:07:35;;;;;;;8.57;4.80;;;5.10;99.90;;;;;;5031141;28;20433;-88
2021/12/12 05:10:13;;;;;;;8.90;5.27;;;5.20;99.90;;;;;;5022070;28;20195;-88
2021/12/12 05:12:50;;;;;;;11.40;5.17;;;5.10;99.90;;;;;;5031257;28;20417;-88
2021/12/12 05:15:31;;;;;;;8.70;4.73;;;5.10;99.90;;;;;;5031137;28;20457;-88
2021/12/12 05:18:14;;;;;;;8.63;6.07;;;5.10;99.90;;;;;;5030904;28;20437;-87
2021/12/12 05:20:45;;;;;;;10.40;4.90;;;5.20;99.90;;;;;;5031931;28;20410;-87
2021/12/12 05:23:15;;;;;;;10.97;4.80;;;5.10;99.90;;;;;;5031419;28;20409;-87
2021/12/12 05:26:15;;;;;;;7.50;5.30;;;5.20;99.90;;;;;;5030535;28;20420;-88
2021/12/12 05:29:04;;;;;;;9.50;5.40;;;5.20;99.90;;;;;;5033369;28;20440;-89
2021/12/12 05:31:32;;;;;;;10.70;5.87;;;5.20;99.90;;;;;;5034500;28;20948;-88
2021/12/12 05:33:58;;;;;;;9.13;5.57;;;5.20;99.90;;;;;;5034387;28;20462;-88
2021/12/12 05:36:25;;;;;;;14.30;5.40;;;5.20;99.90;;;;;;5034368;28;20499;-88
2021/12/12 05:38:52;;;;;;;11.53;6.00;;;5.20;99.90;;;;;;5034339;28;20981;-88
2021/12/12 05:41:20;;;;;;;12.30;5.57;;;5.20;99.90;;;;;;5034376;28;20456;-88
2021/12/12 05:43:51;;;;;;;15.50;6.17;;;5.30;99.90;;;;;;5034181;28;20427;-88
2021/12/12 05:46:19;;;;;;;10.37;6.40;;;5.20;99.90;;;;;;5034144;28;20476;-89
2021/12/12 05:48:47;;;;;;;15.30;6.80;;;5.20;99.90;;;;;;5034121;28;20517;-89
2021/12/12 05:51:13;;;;;;;15.77;7.80;;;5.30;99.90;;;;;;5034130;28;20452;-88
2021/12/12 05:53:40;;;;;;;12.30;6.00;;;5.30;99.90;;;;;;5033972;28;20493;-91
2021/12/12 05:56:07;;;;;;;11.93;6.30;;;5.20;99.90;;;;;;5033860;28;20503;-88
2021/12/12 05:58:33;;;;;;;11.53;6.00;;;5.20;99.90;;;;;;5034031;28;20418;-88
2021/12/12 06:01:05;;;;;;;11.70;5.80;;;5.20;99.90;;;;;;5033912;28;20414;-87
2021/12/12 06:03:37;;;;;;;7.93;5.43;;;5.20;99.90;;;;;;5033886;28;20461;-88
2021/12/12 06:06:07;;;;;;;10.03;6.00;;;5.20;99.90;;;;;;5033838;28;20445;-88
2021/12/12 06:08:33;;;;;;;13.50;6.57;;;5.20;99.90;;;;;;5033819;28;20450;-88
2021/12/12 06:10:59;;;;;;;10.10;5.67;;;5.10;99.90;;;;;;5033917;28;20921;-87
2021/12/12 06:13:25;;;;;;;10.37;6.27;;;5.10;99.90;;;;;;5033761;28;20470;-88
2021/12/12 06:15:54;;;;;;;8.50;6.27;;;5.20;99.90;;;;;;5033373;28;20472;-88
2021/12/12 06:18:22;;;;;;;12.10;6.50;;;5.10;99.90;;;;;;5033682;28;20476;-89
2021/12/12 06:20:49;;;;;;;9.03;6.37;;;5.20;99.90;;;;;;5033700;28;20513;-88
2021/12/12 06:23:15;;;;;;;12.83;5.97;;;5.20;99.90;;;;;;5033564;28;20454;-88
2021/12/12 06:25:43;;;;;;;14.80;5.73;;;5.20;99.90;;;;;;5033242;28;20995;-88
2021/12/12 06:28:16;;;;;;;10.43;7.50;;;5.20;99.90;;;;;;5033284;28;20428;-89
2021/12/12 06:30:42;;;;;;;14.70;6.37;;;5.20;99.90;;;;;;5033520;28;20430;-88
2021/12/12 06:33:10;;;;;;;10.23;6.03;;;5.20;99.90;;;;;;5033347;28;20474;-90
2021/12/12 06:35:37;;;;;;;10.00;6.17;;;5.30;99.90;;;;;;5033245;28;20427;-88
2021/12/12 06:38:08;;;;;;;14.37;7.50;;;5.20;99.90;;;;;;5033279;28;20775;-88
2021/12/12 06:40:35;;;;;;;11.53;6.40;;;5.30;99.90;;;;;;5032093;28;20459;-88
2021/12/12 06:43:04;;;;;;;12.23;6.50;;;5.20;99.90;;;;;;5033132;28;20420;-89
2021/12/12 06:45:30;;;;;;;14.00;6.60;;;5.30;99.90;;;;;;5033107;28;20854;-88
2021/12/12 06:47:56;;;;;;;12.60;6.97;;;5.30;99.90;;;;;;5032890;28;20579;-88
2021/12/12 06:50:25;;;;;;;13.93;7.00;;;5.30;99.90;;;;;;5032798;28;20432;-88
2021/12/12 06:52:53;;;;;;;13.70;6.60;;;5.30;99.90;;;;;;5032868;28;20427;-88
2021/12/12 06:55:20;;;;;;;12.03;5.73;;;5.30;99.90;;;;;;5032895;28;20462;-91
2021/12/12 06:57:46;;;;;;;14.70;6.83;;;5.30;99.90;;;;;;5032599;28;20446;-88
2021/12/12 07:00:19;;;;;;;13.23;5.83;;;5.40;99.90;;;;;;5032748;28;20846;-89
2021/12/12 07:02:46;;;;;;;8.53;5.73;;;5.40;99.90;;;;;;5032730;28;20407;-89
2021/12/12 07:05:19;;;;;;;14.37;6.63;;;5.50;99.90;;;;;;5032748;28;20942;-88
2021/12/12 07:07:46;;;;;;;13.80;6.40;;;5.40;99.90;;;;;;5032963;28;20438;-88
2021/12/12 07:10:14;;;;;;;10.83;7.17;;;5.40;99.90;;;;;;5032592;28;20430;-89
2021/12/12 07:12:41;;;;;;;10.93;6.60;;;5.50;99.90;;;;;;5032513;28;20422;-89
2021/12/12 07:15:10;;;;;;;8.60;5.10;;;5.40;99.90;;;;;;5032551;28;21041;-88
2021/12/12 07:17:36;;;;;;;13.30;6.87;;;5.50;99.90;;;;;;5032341;28;20488;-89
2021/12/12 07:20:06;;;;;;;10.90;5.57;;;5.50;99.90;;;;;;5032469;28;20445;-88
2021/12/12 07:22:32;;;;;;;12.23;5.40;;;5.50;99.90;;;;;;5032152;28;20514;-89
2021/12/12 07:25:03;;;;;;;7.80;5.70;;;5.60;99.90;;;;;;5032326;28;20486;-90
2021/12/12 07:27:29;;;;;;;12.43;5.17;;;5.60;99.90;;;;;;5031985;28;20813;-89
2021/12/12 07:29:56;;;;;;;7.47;4.60;;;5.60;99.90;;;;;;5032224;28;20458;-89
2021/12/12 07:32:22;;;;;;;10.33;6.00;;;5.60;99.90;;;;;;5032494;28;20568;-89
2021/12/12 07:34:48;;;;;;;12.30;5.50;;;5.70;99.90;;;;;;5032477;28;20849;-89
2021/12/12 07:37:14;;;;;;;7.70;5.07;;;5.70;99.90;;;;;;5032492;28;20532;-90
2021/12/12 07:39:43;;;;;;;8.70;5.00;;;5.70;99.90;;;;;;5032666;28;20426;-88
2021/12/12 07:42:10;;;;;;;8.90;5.00;;;5.70;99.90;;;;;;5032559;28;20423;-89
2021/12/12 07:44:40;;;;;;;12.03;5.17;;;5.70;99.90;;;;;;5032570;28;20506;-89
2021/12/12 07:47:07;;;;;;;10.07;4.33;;;5.80;99.90;;;;;;5075368;22;20500;-89
2021/12/12 07:49:37;;;;;;;7.83;4.93;;;5.80;99.90;;;;;;5061480;28;20417;-89
2021/12/12 07:52:06;;;;;;;6.20;4.60;;;5.80;99.90;;;;;;5062354;28;20469;-88
2021/12/12 07:54:33;;;;;;;8.73;5.33;;;5.80;99.90;;;;;;5058882;28;20487;-89
2021/12/12 07:56:59;;;;;;;7.33;4.93;;;5.90;99.90;;;;;;5053600;28;20454;-88
2021/12/12 07:59:26;;;;;;;9.83;5.17;;;5.90;99.90;;;;;;5036719;28;20955;-88
2021/12/12 08:01:52;;;;;;;14.10;5.40;;;5.90;99.90;;;;;;5040640;28;20461;-89
2021/12/12 08:04:22;;;;;;;8.40;4.97;;;6.00;99.90;;;;;;5040156;28;20445;-89
2021/12/12 08:06:49;;;;;;;11.07;4.70;;;6.00;99.90;;;;;;5041524;28;20996;-89
2021/12/12 08:09:16;;;;;;;11.00;5.40;;;6.00;99.90;;;;;;5042561;28;20907;-90
2021/12/12 08:11:43;;;;;;;15.80;4.80;;;6.00;99.90;;;;;;5042733;28;20519;-89
2021/12/12 08:14:15;;;;;;;7.47;4.63;;;6.00;99.90;;;;;;5013855;28;20469;-89
2021/12/12 08:16:42;;;;;;;7.07;5.20;;;6.10;99.90;;;;;;5014058;28;20439;-90
2021/12/12 08:19:08;;;;;;;9.10;5.20;;;6.10;99.90;;;;;;5020538;28;20436;-90
2021/12/12 08:21:34;;;;;;;12.10;5.10;;;6.10;99.90;;;;;;5044613;28;20424;-90
2021/12/12 08:24:08;;;;;;;6.27;4.97;;;6.20;99.90;;;;;;5052988;28;20426;-89
2021/12/12 08:26:36;;;;;;;6.00;4.37;;;6.20;99.90;;;;;;5052215;28;20490;-89
2021/12/12 08:29:05;;;;;;;6.50;4.90;;;6.20;99.90;;;;;;5053198;28;20804;-89
2021/12/12 08:31:31;;;;;;;5.03;3.27;;;6.20;99.90;;;;;;5053568;28;20428;-88
2021/12/12 08:33:57;;;;;;;11.63;4.17;;;6.30;99.90;;;;;;5052637;28;20970;-87
2021/12/12 08:36:23;;;;;;;10.03;4.00;;;6.30;99.90;;;;;;5051810;28;20568;-88
2021/12/12 08:38:49;;;;;;;5.83;3.93;;;6.40;99.90;;;;;;5049711;28;20769;-89
2021/12/12 08:41:15;;;;;;;5.93;3.60;;;6.40;99.90;;;;;;5040701;28;20476;-89
2021/12/12 08:43:43;;;;;;;5.57;3.90;;;6.40;99.90;;;;;;5041537;28;20184;-88
2021/12/12 08:46:12;;;;;;;4.80;3.30;;;6.40;99.90;;;;;;5032269;28;20458;-88
2021/12/12 08:48:42;;;;;;;7.23;3.50;;;6.40;99.90;;;;;;5039349;28;20442;-87
2021/12/12 08:51:25;;;;;;;6.87;3.30;;;6.50;99.90;;;;;;5011054;28;20487;-87
2021/12/12 08:53:54;;;;;;;10.20;3.43;;;6.60;99.90;;;;;;5018476;28;20460;-87
2021/12/12 08:56:31;;;;;;;5.67;3.07;;;6.60;99.90;;;;;;5039741;28;20488;-88
2021/12/12 08:58:59;;;;;;;6.10;3.13;;;6.60;99.90;;;;;;5040327;28;20438;-88
2021/12/12 09:01:25;;;;;;;5.20;3.10;;;6.60;99.90;;;;;;5039812;28;20427;-87
2021/12/12 09:03:58;;;;;;;7.13;2.70;;;6.70;99.90;;;;;;5054897;28;21116;-88
2021/12/12 09:06:32;;;;;;;5.30;2.77;;;6.70;99.90;;;;;;5058098;28;20560;-87
2021/12/12 09:09:05;;;;;;;5.60;3.20;;;6.70;99.90;;;;;;5057775;28;20961;-87
2021/12/12 09:12:00;;;;;;;6.17;3.27;;;6.70;99.90;;;;;;5057597;28;20453;-88
2021/12/12 09:14:36;;;;;;;5.40;2.50;;;6.70;99.90;;;;;;5053423;28;20473;-88
2021/12/12 09:17:05;;;;;;;5.50;3.00;;;6.80;99.90;;;;;;5057538;28;20457;-88
2021/12/12 09:19:49;;;;;;;3.50;2.30;;;6.80;99.90;;;;;;5057369;28;20803;-88
2021/12/12 09:22:26;;;;;;;5.63;2.73;;;6.80;99.90;;;;;;5057584;28;20462;-87
2021/12/12 09:24:59;;;;;;;4.00;2.30;;;6.90;99.90;;;;;;5043232;28;20884;-87
2021/12/12 09:27:41;;;;;;;3.13;1.90;;;6.90;99.90;;;;;;5034615;28;20454;-88
2021/12/12 09:30:27;;;;;;;6.17;3.13;;;6.90;99.90;;;;;;5033115;28;20451;-87
2021/12/12 09:33:11;;;;;;;3.60;2.10;;;6.90;99.90;;;;;;5044027;28;20429;-87
2021/12/12 09:35:45;;;;;;;7.67;2.77;;;6.90;99.90;;;;;;5042602;28;20443;-87
2021/12/12 09:38:18;;;;;;;7.17;2.83;;;7.00;99.90;;;;;;5040710;28;20414;-87
2021/12/12 09:41:04;;;;;;;4.90;2.80;;;7.00;99.90;;;;;;5044420;28;20484;-87
2021/12/12 09:43:50;;;;;;;3.77;2.33;;;7.10;99.90;;;;;;5015215;28;20434;-88
2021/12/12 09:46:58;;;;;;;4.40;2.47;;;7.10;99.90;;;;;;5037697;28;20832;-88
2021/12/12 09:53:07;;;;;;;4.77;2.20;;;7.20;99.90;;;;;;5039147;28;20422;-88
2021/12/12 09:55:36;;;;;;;4.60;2.17;;;7.20;99.90;;;;;;5037254;28;21036;-87
2021/12/12 09:58:15;;;;;;;4.00;2.30;;;7.20;99.90;;;;;;5037335;28;20442;-87
2021/12/12 10:01:06;;;;;;;5.27;2.60;;;7.20;99.90;;;;;;5037864;28;20909;-87
2021/12/12 10:03:35;;;;;;;5.43;3.10;;;7.30;99.90;;;;;;5028465;28;20957;-87
2021/12/12 10:06:27;;;;;;;3.53;2.40;;;7.30;99.90;;;;;;5038195;28;20951;-88
2021/12/12 10:09:12;;;;;;;3.60;1.90;;;7.30;99.90;;;;;;5033228;28;20476;-87
2021/12/12 10:12:04;;;;;;;4.70;3.43;;;7.40;99.90;;;;;;5037453;28;20454;-87
2021/12/12 10:14:38;;;;;;;4.70;2.80;;;7.40;99.90;;;;;;5035558;28;20466;-87
2021/12/12 10:17:39;;;;;;;4.20;2.40;;;7.40;99.90;;;;;;5034280;28;20817;-87
2021/12/12 10:20:18;;;;;;;3.23;2.07;;;7.40;99.90;;;;;;4992332;28;20427;-87
2021/12/12 10:23:08;;;;;;;4.13;2.60;;;7.40;99.90;;;;;;5034234;28;20912;-87
2021/12/12 10:25:52;;;;;;;4.73;2.70;;;7.50;99.90;;;;;;5034742;28;20424;-88
2021/12/12 10:28:42;;;;;;;6.23;3.13;;;7.50;99.90;;;;;;5034260;28;20801;-88
2021/12/12 10:31:27;;;;;;;3.60;2.60;;;7.50;99.90;;;;;;5033664;28;20565;-88
2021/12/12 10:34:07;;;;;;;3.27;2.20;;;7.50;99.90;;;;;;5033751;28;20458;-87
2021/12/12 10:36:56;;;;;;;3.83;2.33;;;7.50;99.90;;;;;;5034135;28;20461;-88
2021/12/12 10:39:42;;;;;;;3.40;2.40;;;7.50;99.90;;;;;;5032972;28;20423;-87
2021/12/12 10:42:18;;;;;;;4.60;2.90;;;7.60;99.90;;;;;;5034018;28;20434;-87
2021/12/12 10:44:49;;;;;;;3.80;2.37;;;7.70;99.90;;;;;;5033094;28;20518;-88
2021/12/12 10:47:31;;;;;;;4.80;3.40;;;7.70;99.90;;;;;;5033348;28;20455;-88
2021/12/12 10:50:15;;;;;;;4.30;2.63;;;7.80;99.90;;;;;;5033712;28;20438;-87
2021/12/12 10:52:44;;;;;;;4.33;3.10;;;7.80;99.90;;;;;;5034986;28;20423;-88
2021/12/12 10:55:30;;;;;;;5.80;3.33;;;7.80;99.90;;;;;;5040414;28;20466;-87
2021/12/12 10:58:23;;;;;;;7.17;4.60;;;7.80;99.90;;;;;;5051700;28;20442;-87
2021/12/12 11:00:53;;;;;;;4.40;3.00;;;7.80;99.90;;;;;;5052421;28;20809;-87
2021/12/12 11:03:33;;;;;;;6.07;3.30;;;7.70;99.90;;;;;;5053116;28;20933;-87
2021/12/12 11:06:25;;;;;;;5.40;3.80;;;7.80;99.90;;;;;;5052836;28;20532;-87
2021/12/12 11:08:55;;;;;;;6.40;3.57;;;7.80;99.90;;;;;;5053023;28;20430;-87
2021/12/12 11:11:33;;;;;;;5.67;3.50;;;7.80;99.90;;;;;;5052770;28;20422;-86
2021/12/12 11:14:05;;;;;;;6.03;3.83;;;7.90;99.90;;;;;;5052714;28;20453;-87
2021/12/12 11:16:37;;;;;;;5.83;3.30;;;7.90;99.90;;;;;;5052846;28;20815;-86
2021/12/12 11:19:12;;;;;;;4.50;3.60;;;8.00;99.90;;;;;;5052588;28;20422;-86
2021/12/12 11:21:43;;;;;;;7.13;3.47;;;8.00;99.90;;;;;;5052548;28;20807;-87
2021/12/12 11:24:19;;;;;;;4.40;3.30;;;8.00;99.90;;;;;;5052906;28;20421;-87
2021/12/12 11:27:08;;;;;;;4.93;2.90;;;8.00;99.90;;;;;;5051990;28;20869;-86
2021/12/12 11:29:46;;;;;;;5.00;2.97;;;7.90;99.90;;;;;;5052766;28;20942;-87
2021/12/12 11:32:18;;;;;;;6.33;3.07;;;7.90;99.90;;;;;;5052773;28;20479;-87
2021/12/12 11:34:48;;;;;;;5.10;3.10;;;7.90;99.90;;;;;;5052947;28;20466;-87
2021/12/12 11:37:17;;;;;;;6.27;3.43;;;7.90;99.90;;;;;;5052368;28;20449;-87
2021/12/12 11:39:52;;;;;;;5.77;4.07;;;8.00;99.90;;;;;;5053087;28;20779;-87
2021/12/12 11:42:17;;;;;;;4.10;3.00;;;8.10;99.90;;;;;;5052984;28;20449;-87
2021/12/12 11:45:05;;;;;;;5.40;3.17;;;8.10;99.90;;;;;;5052696;28;20422;-87
2021/12/12 11:47:53;;;;;;;5.43;3.43;;;8.20;99.90;;;;;;5052622;28;20211;-88
2021/12/12 11:50:26;;;;;;;4.63;2.57;;;8.30;99.90;;;;;;5053061;28;20833;-87
2021/12/12 11:52:59;;;;;;;5.20;3.70;;;8.30;99.90;;;;;;5051516;28;20414;-88
2021/12/12 11:55:39;;;;;;;5.20;3.37;;;8.30;99.90;;;;;;5051705;28;20458;-88
2021/12/12 11:58:37;;;;;;;5.30;3.40;;;8.40;99.90;;;;;;5051672;28;20465;-88
2021/12/12 12:01:18;;;;;;;5.40;3.20;;;8.40;99.90;;;;;;5051406;28;20418;-88
2021/12/12 12:04:22;;;;;;;4.50;3.07;;;8.40;99.90;;;;;;5051805;28;20444;-87
2021/12/12 12:07:09;;;;;;;4.53;2.90;;;8.40;99.90;;;;;;5051301;28;21035;-87
2021/12/12 12:09:49;;;;;;;6.10;3.50;;;8.40;99.90;;;;;;5051424;28;20418;-88
2021/12/12 12:12:57;;;;;;;4.10;3.10;;;8.50;99.90;;;;;;5051395;28;20418;-87
2021/12/12 12:16:02;;;;;;;3.27;2.60;;;8.60;99.90;;;;;;5037865;28;20466;-88
2021/12/12 12:18:54;;;;;;;5.27;3.53;;;8.50;99.90;;;;;;5051199;28;20414;-88
2021/12/12 12:21:34;;;;;;;4.87;3.20;;;8.60;99.90;;;;;;5051309;28;20430;-88
2021/12/12 12:26:53;;;;;;;5.67;3.40;;;8.50;99.90;;;;;;5052822;28;20943;-88
2021/12/12 12:29:21;;;;;;;8.20;3.37;;;8.50;99.90;;;;;;5051192;28;20970;-88
2021/12/12 12:32:09;;;;;;;4.53;3.27;;;8.50;99.90;;;;;;5051250;28;20429;-88
2021/12/12 12:34:49;;;;;;;4.50;2.77;;;8.50;99.90;;;;;;5050930;28;20504;-88
2021/12/12 12:37:40;;;;;;;4.93;3.60;;;8.50;99.90;;;;;;5050122;28;20531;-88
2021/12/12 12:40:43;;;;;;;5.13;4.20;;;8.50;99.90;;;;;;5051061;28;20796;-87
2021/12/12 12:43:47;;;;;;;10.30;4.20;;;8.50;99.90;;;;;;5050779;28;20418;-88
2021/12/12 12:46:37;;;;;;;6.10;3.97;;;8.60;99.90;;;;;;5050778;28;20460;-87
2021/12/12 12:49:42;;;;;;;6.90;4.20;;;8.60;99.90;;;;;;5050706;28;20970;-90
2021/12/12 12:52:36;;;;;;;5.87;4.10;;;8.60;99.90;;;;;;5050849;28;20850;-87
2021/12/12 12:55:23;;;;;;;6.97;5.00;;;8.70;99.90;;;;;;5050778;28;20832;-88
2021/12/12 12:57:54;;;;;;;7.33;5.30;;;8.70;99.90;;;;;;5050607;28;20537;-90
2021/12/12 13:00:23;;;;;;;7.03;4.60;;;8.70;99.90;;;;;;5050677;28;20468;-89
2021/12/12 13:03:17;;;;;;;8.07;4.93;;;8.70;99.90;;;;;;5050568;28;20430;-88
2021/12/12 13:06:01;;;;;;;8.33;4.43;;;8.70;99.90;;;;;;5050698;28;20801;-88
2021/12/12 13:09:04;;;;;;;7.30;5.57;;;8.70;99.90;;;;;;5050671;28;20445;-88
2021/12/12 13:12:02;;;;;;;5.57;4.10;;;8.70;99.90;;;;;;5050629;28;20465;-88
2021/12/12 13:14:34;;;;;;;6.50;3.93;;;8.70;99.90;;;;;;5050808;28;20454;-88
2021/12/12 13:17:44;;;;;;;6.40;4.53;;;8.70;99.90;;;;;;5050613;28;20444;-89
2021/12/12 13:20:24;;;;;;;6.10;4.30;;;8.70;99.90;;;;;;5050489;28;20426;-89
2021/12/12 13:23:08;;;;;;;6.00;4.07;;;8.70;99.90;;;;;;5050657;28;20468;-88
2021/12/12 13:25:41;;;;;;;9.00;4.50;;;8.70;99.90;;;;;;5050583;28;20422;-89
2021/12/12 13:28:27;;;;;;;9.23;4.57;;;8.80;99.90;;;;;;5050684;28;20422;-89
2021/12/12 13:31:06;;;;;;;8.40;4.70;;;8.80;99.90;;;;;;5051015;28;20480;-88
2021/12/12 13:33:47;;;;;;;9.90;5.10;;;8.80;99.90;;;;;;5050222;28;20437;-89
2021/12/12 13:36:26;;;;;;;8.33;5.27;;;8.80;99.90;;;;;;5050413;28;20525;-92
2021/12/12 13:38:58;;;;;;;7.77;5.20;;;8.80;99.90;;;;;;5050503;28;20418;-88
2021/12/12 13:41:33;;;;;;;8.27;4.23;;;8.90;99.90;;;;;;5050530;28;20414;-89
2021/12/12 13:44:29;;;;;;;6.40;3.90;;;8.90;99.90;;;;;;5050174;28;20422;-91
2021/12/12 13:47:19;;;;;;;5.30;3.70;;;8.90;99.90;;;;;;5049845;28;20508;-92
2021/12/12 13:50:03;;;;;;;6.70;3.17;;;8.90;99.90;;;;;;5068099;22;20505;-76
2021/12/12 13:52:52;;;;;;;5.87;3.60;;;8.90;99.90;;;;;;5031248;28;20493;-76
2021/12/12 13:55:29;;;;;;;6.13;3.80;;;9.00;99.90;;;;;;5034867;28;20557;-76